sensor_id;sensor_type;location;lat;lon;timestamp;P1;durP1;ratioP1;P2;durP2;ratioP2
22965;SDS011;11649;48.090;9.754;2023-01-19T00:01:27;15.10;;;9.55;;
22965;SDS011;11649;48.090;9.754;2023-01-19T00:03:54;13.30;;;9.43;;
22965;SDS011;11649;48.090;9.754;2023-01-19T00:06:21;13.52;;;9.30;;
22965;SDS011;11649;48.090;9.754;2023-01-19T00:08:48;14.07;;;9.00;;
22965;SDS011;11649;48.090;9.754;2023-01-19T00:11:17;14.68;;;9.13;;
22965;SDS011;11649;48.090;9.754;2023-01-19T00:13:45;13.48;;;9.10;;
22965;SDS011;11649;48.090;9.754;2023-01-19T00:16:16;14.32;;;9.23;;
22965;SDS011;11649;48.090;9.754;2023-01-19T00:18:44;14.30;;;9.10;;
22965;SDS011;11649;48.090;9.754;2023-01-19T00:21:11;13.43;;;9.20;;
22965;SDS011;11649;48.090;9.754;2023-01-19T00:23:42;13.57;;;9.35;;
22965;SDS011;11649;48.090;9.754;2023-01-19T00:26:13;12.80;;;8.95;;
22965;SDS011;11649;48.090;9.754;2023-01-19T00:28:44;13.15;;;8.88;;
22965;SDS011;11649;48.090;9.754;2023-01-19T00:31:11;15.55;;;9.13;;
22965;SDS011;11649;48.090;9.754;2023-01-19T00:33:38;15.55;;;8.95;;
22965;SDS011;11649;48.090;9.754;2023-01-19T00:36:05;13.13;;;8.35;;
22965;SDS011;11649;48.090;9.754;2023-01-19T00:38:32;13.68;;;9.13;;
22965;SDS011;11649;48.090;9.754;2023-01-19T00:40:58;14.07;;;7.90;;
22965;SDS011;11649;48.090;9.754;2023-01-19T00:43:25;12.50;;;8.75;;
22965;SDS011;11649;48.090;9.754;2023-01-19T00:45:53;13.98;;;8.90;;
22965;SDS011;11649;48.090;9.754;2023-01-19T00:48:20;11.63;;;8.18;;
22965;SDS011;11649;48.090;9.754;2023-01-19T00:50:47;13.48;;;9.02;;
22965;SDS011;11649;48.090;9.754;2023-01-19T00:53:14;14.10;;;8.93;;
22965;SDS011;11649;48.090;9.754;2023-01-19T00:55:41;11.48;;;8.63;;
22965;SDS011;11649;48.090;9.754;2023-01-19T00:58:07;13.38;;;8.30;;
22965;SDS011;11649;48.090;9.754;2023-01-19T01:00:34;13.27;;;8.30;;
22965;SDS011;11649;48.090;9.754;2023-01-19T01:03:01;12.80;;;8.00;;
22965;SDS011;11649;48.090;9.754;2023-01-19T01:05:29;15.02;;;8.98;;
22965;SDS011;11649;48.090;9.754;2023-01-19T01:07:56;12.20;;;7.75;;
22965;SDS011;11649;48.090;9.754;2023-01-19T01:10:23;15.82;;;8.35;;
22965;SDS011;11649;48.090;9.754;2023-01-19T01:12:53;15.63;;;8.57;;
22965;SDS011;11649;48.090;9.754;2023-01-19T01:15:39;13.32;;;8.80;;
22965;SDS011;11649;48.090;9.754;2023-01-19T01:18:06;14.20;;;8.27;;
22965;SDS011;11649;48.090;9.754;2023-01-19T01:20:33;15.27;;;8.95;;
22965;SDS011;11649;48.090;9.754;2023-01-19T01:23:02;14.98;;;8.82;;
22965;SDS011;11649;48.090;9.754;2023-01-19T01:25:29;15.43;;;8.88;;
22965;SDS011;11649;48.090;9.754;2023-01-19T01:27:56;15.55;;;8.32;;
22965;SDS011;11649;48.090;9.754;2023-01-19T01:30:23;13.90;;;8.55;;
22965;SDS011;11649;48.090;9.754;2023-01-19T01:32:50;13.82;;;8.85;;
22965;SDS011;11649;48.090;9.754;2023-01-19T01:35:17;12.07;;;7.68;;
22965;SDS011;11649;48.090;9.754;2023-01-19T01:37:43;12.30;;;8.18;;
22965;SDS011;11649;48.090;9.754;2023-01-19T01:40:11;13.80;;;9.30;;
22965;SDS011;11649;48.090;9.754;2023-01-19T01:42:39;11.40;;;8.18;;
22965;SDS011;11649;48.090;9.754;2023-01-19T01:45:28;14.07;;;8.63;;
22965;SDS011;11649;48.090;9.754;2023-01-19T01:48:03;12.13;;;8.10;;
22965;SDS011;11649;48.090;9.754;2023-01-19T01:50:31;12.05;;;8.48;;
22965;SDS011;11649;48.090;9.754;2023-01-19T01:53:09;13.63;;;8.38;;
22965;SDS011;11649;48.090;9.754;2023-01-19T01:55:42;12.93;;;8.45;;
22965;SDS011;11649;48.090;9.754;2023-01-19T02:02:20;13.40;;;8.57;;
22965;SDS011;11649;48.090;9.754;2023-01-19T02:05:10;13.85;;;8.75;;
22965;SDS011;11649;48.090;9.754;2023-01-19T02:07:45;13.40;;;8.45;;
22965;SDS011;11649;48.090;9.754;2023-01-19T02:10:34;12.50;;;8.38;;
22965;SDS011;11649;48.090;9.754;2023-01-19T02:13:20;12.57;;;8.55;;
22965;SDS011;11649;48.090;9.754;2023-01-19T02:15:54;10.98;;;8.13;;
22965;SDS011;11649;48.090;9.754;2023-01-19T02:18:25;12.48;;;8.38;;
22965;SDS011;11649;48.090;9.754;2023-01-19T02:21:10;10.93;;;7.75;;
22965;SDS011;11649;48.090;9.754;2023-01-19T02:23:53;11.95;;;8.23;;
22965;SDS011;11649;48.090;9.754;2023-01-19T02:26:43;12.30;;;8.27;;
22965;SDS011;11649;48.090;9.754;2023-01-19T02:29:11;14.00;;;8.00;;
22965;SDS011;11649;48.090;9.754;2023-01-19T02:31:41;11.60;;;8.10;;
22965;SDS011;11649;48.090;9.754;2023-01-19T02:34:09;11.73;;;8.10;;
22965;SDS011;11649;48.090;9.754;2023-01-19T02:36:43;12.55;;;8.50;;
22965;SDS011;11649;48.090;9.754;2023-01-19T02:39:32;11.43;;;8.00;;
22965;SDS011;11649;48.090;9.754;2023-01-19T02:42:05;11.95;;;7.80;;
22965;SDS011;11649;48.090;9.754;2023-01-19T02:44:38;8.35;;;5.95;;
22965;SDS011;11649;48.090;9.754;2023-01-19T02:47:08;11.05;;;7.72;;
22965;SDS011;11649;48.090;9.754;2023-01-19T02:49:35;13.35;;;8.10;;
22965;SDS011;11649;48.090;9.754;2023-01-19T02:52:02;11.50;;;7.72;;
22965;SDS011;11649;48.090;9.754;2023-01-19T02:54:32;12.57;;;8.38;;
22965;SDS011;11649;48.090;9.754;2023-01-19T02:57:33;13.18;;;8.40;;
22965;SDS011;11649;48.090;9.754;2023-01-19T03:00:15;11.27;;;8.05;;
22965;SDS011;11649;48.090;9.754;2023-01-19T03:05:51;10.38;;;8.15;;
22965;SDS011;11649;48.090;9.754;2023-01-19T03:11:14;12.27;;;7.88;;
22965;SDS011;11649;48.090;9.754;2023-01-19T03:19:03;10.63;;;7.65;;
22965;SDS011;11649;48.090;9.754;2023-01-19T03:21:35;10.38;;;7.40;;
22965;SDS011;11649;48.090;9.754;2023-01-19T03:24:05;13.65;;;8.45;;
22965;SDS011;11649;48.090;9.754;2023-01-19T03:26:36;12.38;;;7.57;;
22965;SDS011;11649;48.090;9.754;2023-01-19T03:29:07;13.48;;;7.93;;
22965;SDS011;11649;48.090;9.754;2023-01-19T03:31:35;10.43;;;7.60;;
22965;SDS011;11649;48.090;9.754;2023-01-19T03:34:05;11.88;;;8.45;;
22965;SDS011;11649;48.090;9.754;2023-01-19T03:36:39;11.07;;;7.72;;
22965;SDS011;11649;48.090;9.754;2023-01-19T03:39:11;12.80;;;7.70;;
22965;SDS011;11649;48.090;9.754;2023-01-19T03:41:42;11.35;;;8.10;;
22965;SDS011;11649;48.090;9.754;2023-01-19T03:44:13;11.73;;;8.27;;
22965;SDS011;11649;48.090;9.754;2023-01-19T03:46:42;13.07;;;8.00;;
22965;SDS011;11649;48.090;9.754;2023-01-19T03:49:11;15.35;;;8.98;;
22965;SDS011;11649;48.090;9.754;2023-01-19T03:51:38;11.63;;;8.43;;
22965;SDS011;11649;48.090;9.754;2023-01-19T03:54:05;11.38;;;8.32;;
22965;SDS011;11649;48.090;9.754;2023-01-19T03:56:35;12.80;;;8.50;;
22965;SDS011;11649;48.090;9.754;2023-01-19T03:59:02;12.32;;;8.15;;
22965;SDS011;11649;48.090;9.754;2023-01-19T04:01:30;13.45;;;8.13;;
22965;SDS011;11649;48.090;9.754;2023-01-19T04:03:57;11.30;;;8.05;;
22965;SDS011;11649;48.090;9.754;2023-01-19T04:06:24;13.43;;;9.18;;
22965;SDS011;11649;48.090;9.754;2023-01-19T04:08:52;14.70;;;8.75;;
22965;SDS011;11649;48.090;9.754;2023-01-19T04:11:19;12.68;;;8.73;;
22965;SDS011;11649;48.090;9.754;2023-01-19T04:13:45;11.85;;;8.02;;
22965;SDS011;11649;48.090;9.754;2023-01-19T04:16:12;11.73;;;7.75;;
22965;SDS011;11649;48.090;9.754;2023-01-19T04:18:39;12.63;;;8.00;;
22965;SDS011;11649;48.090;9.754;2023-01-19T04:21:07;13.68;;;7.97;;
22965;SDS011;11649;48.090;9.754;2023-01-19T04:23:34;12.18;;;8.07;;
22965;SDS011;11649;48.090;9.754;2023-01-19T04:26:02;11.98;;;8.10;;
22965;SDS011;11649;48.090;9.754;2023-01-19T04:28:31;11.93;;;7.90;;
22965;SDS011;11649;48.090;9.754;2023-01-19T04:31:01;12.50;;;8.07;;
22965;SDS011;11649;48.090;9.754;2023-01-19T04:33:28;10.90;;;8.20;;
22965;SDS011;11649;48.090;9.754;2023-01-19T04:35:56;12.88;;;8.10;;
22965;SDS011;11649;48.090;9.754;2023-01-19T04:38:23;12.55;;;7.93;;
22965;SDS011;11649;48.090;9.754;2023-01-19T04:40:51;10.40;;;7.40;;
22965;SDS011;11649;48.090;9.754;2023-01-19T04:43:18;13.95;;;8.77;;
22965;SDS011;11649;48.090;9.754;2023-01-19T04:45:46;13.82;;;8.50;;
22965;SDS011;11649;48.090;9.754;2023-01-19T04:48:13;14.57;;;9.05;;
22965;SDS011;11649;48.090;9.754;2023-01-19T04:50:41;13.73;;;8.70;;
22965;SDS011;11649;48.090;9.754;2023-01-19T04:53:07;14.00;;;8.20;;
22965;SDS011;11649;48.090;9.754;2023-01-19T04:55:35;13.15;;;8.13;;
22965;SDS011;11649;48.090;9.754;2023-01-19T04:58:02;15.65;;;9.43;;
22965;SDS011;11649;48.090;9.754;2023-01-19T05:00:29;13.88;;;8.95;;
22965;SDS011;11649;48.090;9.754;2023-01-19T05:02:57;19.63;;;9.00;;
22965;SDS011;11649;48.090;9.754;2023-01-19T05:05:25;12.57;;;8.77;;
22965;SDS011;11649;48.090;9.754;2023-01-19T05:07:52;14.80;;;9.80;;
22965;SDS011;11649;48.090;9.754;2023-01-19T05:10:20;16.00;;;9.98;;
22965;SDS011;11649;48.090;9.754;2023-01-19T05:12:47;16.45;;;9.98;;
22965;SDS011;11649;48.090;9.754;2023-01-19T05:15:13;17.08;;;10.27;;
22965;SDS011;11649;48.090;9.754;2023-01-19T05:17:41;18.30;;;11.13;;
22965;SDS011;11649;48.090;9.754;2023-01-19T05:20:09;16.67;;;10.90;;
22965;SDS011;11649;48.090;9.754;2023-01-19T05:22:38;22.40;;;13.07;;
22965;SDS011;11649;48.090;9.754;2023-01-19T05:25:08;16.63;;;10.82;;
22965;SDS011;11649;48.090;9.754;2023-01-19T05:27:35;16.48;;;10.52;;
22965;SDS011;11649;48.090;9.754;2023-01-19T05:30:03;19.20;;;10.25;;
22965;SDS011;11649;48.090;9.754;2023-01-19T05:32:30;18.85;;;10.95;;
22965;SDS011;11649;48.090;9.754;2023-01-19T05:34:57;15.90;;;10.35;;
22965;SDS011;11649;48.090;9.754;2023-01-19T05:37:24;15.40;;;10.88;;
22965;SDS011;11649;48.090;9.754;2023-01-19T05:39:51;20.02;;;12.25;;
22965;SDS011;11649;48.090;9.754;2023-01-19T05:42:19;19.75;;;12.55;;
22965;SDS011;11649;48.090;9.754;2023-01-19T05:44:46;18.27;;;13.15;;
22965;SDS011;11649;48.090;9.754;2023-01-19T05:47:12;18.48;;;11.68;;
22965;SDS011;11649;48.090;9.754;2023-01-19T05:49:39;21.52;;;14.18;;
22965;SDS011;11649;48.090;9.754;2023-01-19T05:52:06;16.02;;;11.40;;
22965;SDS011;11649;48.090;9.754;2023-01-19T05:54:33;21.08;;;13.35;;
22965;SDS011;11649;48.090;9.754;2023-01-19T05:56:59;20.63;;;12.57;;
22965;SDS011;11649;48.090;9.754;2023-01-19T05:59:27;19.60;;;11.80;;
22965;SDS011;11649;48.090;9.754;2023-01-19T06:01:54;23.02;;;16.13;;
22965;SDS011;11649;48.090;9.754;2023-01-19T06:04:22;24.73;;;16.00;;
22965;SDS011;11649;48.090;9.754;2023-01-19T06:06:50;32.75;;;20.30;;
22965;SDS011;11649;48.090;9.754;2023-01-19T06:09:17;33.78;;;20.88;;
22965;SDS011;11649;48.090;9.754;2023-01-19T06:11:44;23.50;;;15.43;;
22965;SDS011;11649;48.090;9.754;2023-01-19T06:14:12;22.75;;;14.18;;
22965;SDS011;11649;48.090;9.754;2023-01-19T06:16:38;20.33;;;12.35;;
22965;SDS011;11649;48.090;9.754;2023-01-19T06:19:05;18.05;;;11.68;;
22965;SDS011;11649;48.090;9.754;2023-01-19T06:21:32;17.52;;;11.15;;
22965;SDS011;11649;48.090;9.754;2023-01-19T06:23:59;18.50;;;11.85;;
22965;SDS011;11649;48.090;9.754;2023-01-19T06:26:26;17.23;;;12.27;;
22965;SDS011;11649;48.090;9.754;2023-01-19T06:28:53;20.17;;;12.50;;
22965;SDS011;11649;48.090;9.754;2023-01-19T06:31:20;21.23;;;13.15;;
22965;SDS011;11649;48.090;9.754;2023-01-19T06:33:47;20.58;;;13.65;;
22965;SDS011;11649;48.090;9.754;2023-01-19T06:36:15;22.00;;;13.70;;
22965;SDS011;11649;48.090;9.754;2023-01-19T06:38:41;23.05;;;14.55;;
22965;SDS011;11649;48.090;9.754;2023-01-19T06:41:08;26.33;;;17.77;;
22965;SDS011;11649;48.090;9.754;2023-01-19T06:43:35;19.08;;;13.68;;
22965;SDS011;11649;48.090;9.754;2023-01-19T06:46:02;20.85;;;14.52;;
22965;SDS011;11649;48.090;9.754;2023-01-19T06:48:29;25.83;;;15.30;;
22965;SDS011;11649;48.090;9.754;2023-01-19T06:50:56;21.27;;;13.48;;
22965;SDS011;11649;48.090;9.754;2023-01-19T06:53:25;21.70;;;13.18;;
22965;SDS011;11649;48.090;9.754;2023-01-19T06:55:56;20.10;;;12.55;;
22965;SDS011;11649;48.090;9.754;2023-01-19T06:58:28;21.23;;;12.40;;
22965;SDS011;11649;48.090;9.754;2023-01-19T07:01:03;21.90;;;12.65;;
22965;SDS011;11649;48.090;9.754;2023-01-19T07:03:30;19.90;;;13.68;;
22965;SDS011;11649;48.090;9.754;2023-01-19T07:05:57;23.02;;;14.43;;
22965;SDS011;11649;48.090;9.754;2023-01-19T07:08:28;21.52;;;13.65;;
22965;SDS011;11649;48.090;9.754;2023-01-19T07:10:59;22.70;;;13.95;;
22965;SDS011;11649;48.090;9.754;2023-01-19T07:13:47;22.60;;;13.68;;
22965;SDS011;11649;48.090;9.754;2023-01-19T07:16:16;22.90;;;14.52;;
22965;SDS011;11649;48.090;9.754;2023-01-19T07:18:44;24.88;;;15.50;;
22965;SDS011;11649;48.090;9.754;2023-01-19T07:21:14;26.70;;;16.08;;
22965;SDS011;11649;48.090;9.754;2023-01-19T07:23:40;25.13;;;15.93;;
22965;SDS011;11649;48.090;9.754;2023-01-19T07:26:08;25.70;;;16.85;;
22965;SDS011;11649;48.090;9.754;2023-01-19T07:28:35;26.02;;;14.98;;
22965;SDS011;11649;48.090;9.754;2023-01-19T07:31:02;23.75;;;14.38;;
22965;SDS011;11649;48.090;9.754;2023-01-19T07:33:30;24.10;;;16.63;;
22965;SDS011;11649;48.090;9.754;2023-01-19T07:35:56;24.58;;;14.95;;
22965;SDS011;11649;48.090;9.754;2023-01-19T07:38:23;22.58;;;14.52;;
22965;SDS011;11649;48.090;9.754;2023-01-19T07:40:50;19.98;;;12.45;;
22965;SDS011;11649;48.090;9.754;2023-01-19T07:43:17;23.05;;;13.63;;
22965;SDS011;11649;48.090;9.754;2023-01-19T07:45:45;23.20;;;13.95;;
22965;SDS011;11649;48.090;9.754;2023-01-19T07:48:11;24.45;;;14.38;;
22965;SDS011;11649;48.090;9.754;2023-01-19T07:50:38;22.38;;;13.88;;
22965;SDS011;11649;48.090;9.754;2023-01-19T07:53:05;20.92;;;12.82;;
22965;SDS011;11649;48.090;9.754;2023-01-19T07:55:33;18.63;;;12.25;;
22965;SDS011;11649;48.090;9.754;2023-01-19T07:58:00;18.65;;;12.13;;
22965;SDS011;11649;48.090;9.754;2023-01-19T08:00:32;20.02;;;12.48;;
22965;SDS011;11649;48.090;9.754;2023-01-19T08:03:00;19.90;;;11.98;;
22965;SDS011;11649;48.090;9.754;2023-01-19T08:05:29;19.88;;;13.00;;
22965;SDS011;11649;48.090;9.754;2023-01-19T08:07:56;22.65;;;13.80;;
22965;SDS011;11649;48.090;9.754;2023-01-19T08:10:24;21.75;;;13.15;;
22965;SDS011;11649;48.090;9.754;2023-01-19T08:12:53;23.23;;;14.10;;
22965;SDS011;11649;48.090;9.754;2023-01-19T08:15:21;20.83;;;13.23;;
22965;SDS011;11649;48.090;9.754;2023-01-19T08:17:56;26.23;;;14.43;;
22965;SDS011;11649;48.090;9.754;2023-01-19T08:20:28;30.45;;;16.25;;
22965;SDS011;11649;48.090;9.754;2023-01-19T08:22:55;26.63;;;15.13;;
22965;SDS011;11649;48.090;9.754;2023-01-19T08:25:30;22.15;;;13.73;;
22965;SDS011;11649;48.090;9.754;2023-01-19T08:27:57;18.85;;;12.48;;
22965;SDS011;11649;48.090;9.754;2023-01-19T08:30:23;20.92;;;12.57;;
22965;SDS011;11649;48.090;9.754;2023-01-19T08:32:52;22.50;;;12.82;;
22965;SDS011;11649;48.090;9.754;2023-01-19T08:35:23;21.10;;;12.80;;
22965;SDS011;11649;48.090;9.754;2023-01-19T08:37:49;19.67;;;13.07;;
22965;SDS011;11649;48.090;9.754;2023-01-19T08:40:16;20.58;;;13.63;;
22965;SDS011;11649;48.090;9.754;2023-01-19T08:42:43;22.58;;;12.95;;
22965;SDS011;11649;48.090;9.754;2023-01-19T08:45:10;23.55;;;13.30;;
22965;SDS011;11649;48.090;9.754;2023-01-19T08:47:37;20.05;;;11.98;;
22965;SDS011;11649;48.090;9.754;2023-01-19T08:50:04;20.83;;;13.38;;
22965;SDS011;11649;48.090;9.754;2023-01-19T08:52:31;20.15;;;13.07;;
22965;SDS011;11649;48.090;9.754;2023-01-19T08:54:58;21.35;;;13.13;;
22965;SDS011;11649;48.090;9.754;2023-01-19T08:57:26;18.85;;;12.95;;
22965;SDS011;11649;48.090;9.754;2023-01-19T08:59:53;21.55;;;14.02;;
22965;SDS011;11649;48.090;9.754;2023-01-19T09:02:19;23.50;;;13.50;;
22965;SDS011;11649;48.090;9.754;2023-01-19T09:04:47;21.35;;;13.00;;
22965;SDS011;11649;48.090;9.754;2023-01-19T09:07:14;19.52;;;12.88;;
22965;SDS011;11649;48.090;9.754;2023-01-19T09:09:40;21.40;;;12.25;;
22965;SDS011;11649;48.090;9.754;2023-01-19T09:12:08;20.27;;;13.07;;
22965;SDS011;11649;48.090;9.754;2023-01-19T09:14:35;21.13;;;12.30;;
22965;SDS011;11649;48.090;9.754;2023-01-19T09:17:02;18.60;;;12.15;;
22965;SDS011;11649;48.090;9.754;2023-01-19T09:19:29;17.02;;;10.88;;
22965;SDS011;11649;48.090;9.754;2023-01-19T09:21:56;16.83;;;10.88;;
22965;SDS011;11649;48.090;9.754;2023-01-19T09:24:24;18.15;;;10.93;;
22965;SDS011;11649;48.090;9.754;2023-01-19T09:26:51;21.40;;;11.07;;
22965;SDS011;11649;48.090;9.754;2023-01-19T09:29:18;16.38;;;10.55;;
22965;SDS011;11649;48.090;9.754;2023-01-19T09:31:45;21.30;;;11.43;;
22965;SDS011;11649;48.090;9.754;2023-01-19T09:34:11;19.30;;;12.30;;
22965;SDS011;11649;48.090;9.754;2023-01-19T09:36:38;19.83;;;10.88;;
22965;SDS011;11649;48.090;9.754;2023-01-19T09:39:05;17.95;;;10.93;;
22965;SDS011;11649;48.090;9.754;2023-01-19T09:41:32;17.77;;;11.38;;
22965;SDS011;11649;48.090;9.754;2023-01-19T09:44:01;23.05;;;14.52;;
22965;SDS011;11649;48.090;9.754;2023-01-19T09:46:32;22.65;;;11.40;;
22965;SDS011;11649;48.090;9.754;2023-01-19T09:49:09;18.20;;;11.10;;
22965;SDS011;11649;48.090;9.754;2023-01-19T09:51:45;17.38;;;10.45;;
22965;SDS011;11649;48.090;9.754;2023-01-19T09:54:18;14.25;;;10.00;;
22965;SDS011;11649;48.090;9.754;2023-01-19T09:56:49;17.00;;;11.05;;
22965;SDS011;11649;48.090;9.754;2023-01-19T10:10:34;17.38;;;11.70;;
22965;SDS011;11649;48.090;9.754;2023-01-19T10:13:13;16.92;;;10.68;;
22965;SDS011;11649;48.090;9.754;2023-01-19T10:18:48;18.48;;;11.05;;
22965;SDS011;11649;48.090;9.754;2023-01-19T10:21:21;17.33;;;11.43;;
22965;SDS011;11649;48.090;9.754;2023-01-19T10:26:53;18.27;;;11.70;;
22965;SDS011;11649;48.090;9.754;2023-01-19T10:32:18;17.02;;;10.57;;
22965;SDS011;11649;48.090;9.754;2023-01-19T10:34:47;14.77;;;10.65;;
22965;SDS011;11649;48.090;9.754;2023-01-19T10:39:51;17.05;;;11.07;;
22965;SDS011;11649;48.090;9.754;2023-01-19T10:42:20;16.20;;;11.13;;
22965;SDS011;11649;48.090;9.754;2023-01-19T10:44:48;18.58;;;10.88;;
22965;SDS011;11649;48.090;9.754;2023-01-19T10:47:19;16.85;;;10.75;;
22965;SDS011;11649;48.090;9.754;2023-01-19T10:49:48;16.48;;;10.85;;
22965;SDS011;11649;48.090;9.754;2023-01-19T10:52:20;15.35;;;10.63;;
22965;SDS011;11649;48.090;9.754;2023-01-19T10:55:02;17.83;;;10.82;;
22965;SDS011;11649;48.090;9.754;2023-01-19T11:00:04;15.77;;;10.02;;
22965;SDS011;11649;48.090;9.754;2023-01-19T11:02:33;18.30;;;11.20;;
22965;SDS011;11649;48.090;9.754;2023-01-19T11:05:01;17.30;;;11.20;;
22965;SDS011;11649;48.090;9.754;2023-01-19T11:07:48;14.88;;;10.75;;
22965;SDS011;11649;48.090;9.754;2023-01-19T11:12:54;17.02;;;10.95;;
22965;SDS011;11649;48.090;9.754;2023-01-19T11:15:33;17.13;;;9.88;;
22965;SDS011;11649;48.090;9.754;2023-01-19T11:18:20;15.45;;;10.32;;
22965;SDS011;11649;48.090;9.754;2023-01-19T11:20:49;17.02;;;11.27;;
22965;SDS011;11649;48.090;9.754;2023-01-19T11:23:28;18.10;;;11.52;;
22965;SDS011;11649;48.090;9.754;2023-01-19T11:26:44;12.05;;;8.45;;
22965;SDS011;11649;48.090;9.754;2023-01-19T11:29:21;12.23;;;7.72;;
22965;SDS011;11649;48.090;9.754;2023-01-19T11:31:50;11.68;;;7.13;;
22965;SDS011;11649;48.090;9.754;2023-01-19T11:36:56;10.70;;;7.30;;
22965;SDS011;11649;48.090;9.754;2023-01-19T11:39:25;11.23;;;7.70;;
22965;SDS011;11649;48.090;9.754;2023-01-19T11:42:00;9.45;;;7.05;;
22965;SDS011;11649;48.090;9.754;2023-01-19T11:44:35;13.63;;;7.40;;
22965;SDS011;11649;48.090;9.754;2023-01-19T11:47:14;14.43;;;7.93;;
22965;SDS011;11649;48.090;9.754;2023-01-19T11:49:49;10.27;;;7.13;;
22965;SDS011;11649;48.090;9.754;2023-01-19T11:57:52;12.63;;;6.93;;
22965;SDS011;11649;48.090;9.754;2023-01-19T12:00:24;10.98;;;7.20;;
22965;SDS011;11649;48.090;9.754;2023-01-19T12:02:56;11.13;;;7.00;;
22965;SDS011;11649;48.090;9.754;2023-01-19T12:05:29;9.82;;;6.93;;
22965;SDS011;11649;48.090;9.754;2023-01-19T12:07:59;9.60;;;6.72;;
22965;SDS011;11649;48.090;9.754;2023-01-19T12:10:32;10.90;;;7.28;;
22965;SDS011;11649;48.090;9.754;2023-01-19T12:13:03;9.10;;;6.80;;
22965;SDS011;11649;48.090;9.754;2023-01-19T12:15:37;11.20;;;6.78;;
22965;SDS011;11649;48.090;9.754;2023-01-19T12:18:27;10.68;;;6.45;;
22965;SDS011;11649;48.090;9.754;2023-01-19T12:21:01;9.25;;;6.55;;
22965;SDS011;11649;48.090;9.754;2023-01-19T12:29:01;7.85;;;5.93;;
22965;SDS011;11649;48.090;9.754;2023-01-19T12:31:40;10.27;;;6.38;;
22965;SDS011;11649;48.090;9.754;2023-01-19T12:34:56;8.23;;;5.40;;
22965;SDS011;11649;48.090;9.754;2023-01-19T12:37:29;10.68;;;5.45;;
22965;SDS011;11649;48.090;9.754;2023-01-19T12:40:00;8.75;;;6.00;;
22965;SDS011;11649;48.090;9.754;2023-01-19T12:43:00;9.55;;;5.43;;
22965;SDS011;11649;48.090;9.754;2023-01-19T12:45:33;7.80;;;5.72;;
22965;SDS011;11649;48.090;9.754;2023-01-19T12:48:02;8.68;;;5.95;;
22965;SDS011;11649;48.090;9.754;2023-01-19T12:50:32;11.38;;;6.70;;
22965;SDS011;11649;48.090;9.754;2023-01-19T12:53:03;9.95;;;6.40;;
22965;SDS011;11649;48.090;9.754;2023-01-19T12:55:40;9.75;;;6.07;;
22965;SDS011;11649;48.090;9.754;2023-01-19T12:58:15;8.63;;;5.38;;
22965;SDS011;11649;48.090;9.754;2023-01-19T13:00:47;10.75;;;6.25;;
22965;SDS011;11649;48.090;9.754;2023-01-19T13:03:42;8.63;;;4.95;;
22965;SDS011;11649;48.090;9.754;2023-01-19T13:07:04;9.93;;;5.70;;
22965;SDS011;11649;48.090;9.754;2023-01-19T13:14:46;8.55;;;5.25;;
22965;SDS011;11649;48.090;9.754;2023-01-19T13:17:30;8.70;;;5.10;;
22965;SDS011;11649;48.090;9.754;2023-01-19T13:20:03;9.75;;;5.18;;
22965;SDS011;11649;48.090;9.754;2023-01-19T13:25:39;8.70;;;5.00;;
22965;SDS011;11649;48.090;9.754;2023-01-19T13:28:12;7.78;;;5.03;;
22965;SDS011;11649;48.090;9.754;2023-01-19T13:30:48;5.63;;;4.28;;
22965;SDS011;11649;48.090;9.754;2023-01-19T13:33:19;7.32;;;5.28;;
22965;SDS011;11649;48.090;9.754;2023-01-19T13:35:53;8.77;;;5.30;;
22965;SDS011;11649;48.090;9.754;2023-01-19T13:38:22;9.75;;;5.13;;
22965;SDS011;11649;48.090;9.754;2023-01-19T13:40:51;8.90;;;5.80;;
22965;SDS011;11649;48.090;9.754;2023-01-19T13:43:21;9.70;;;5.93;;
22965;SDS011;11649;48.090;9.754;2023-01-19T13:45:55;8.73;;;5.55;;
22965;SDS011;11649;48.090;9.754;2023-01-19T13:48:22;8.77;;;5.35;;
22965;SDS011;11649;48.090;9.754;2023-01-19T13:51:01;10.25;;;5.57;;
22965;SDS011;11649;48.090;9.754;2023-01-19T13:53:29;8.25;;;6.05;;
22965;SDS011;11649;48.090;9.754;2023-01-19T13:56:07;17.30;;;12.07;;
22965;SDS011;11649;48.090;9.754;2023-01-19T13:58:41;8.73;;;5.88;;
22965;SDS011;11649;48.090;9.754;2023-01-19T14:01:21;9.90;;;6.28;;
22965;SDS011;11649;48.090;9.754;2023-01-19T14:03:48;9.27;;;6.63;;
22965;SDS011;11649;48.090;9.754;2023-01-19T14:06:37;10.30;;;6.50;;
22965;SDS011;11649;48.090;9.754;2023-01-19T14:09:07;10.32;;;5.60;;
22965;SDS011;11649;48.090;9.754;2023-01-19T14:14:30;8.95;;;6.07;;
22965;SDS011;11649;48.090;9.754;2023-01-19T14:16:57;8.50;;;5.85;;
22965;SDS011;11649;48.090;9.754;2023-01-19T14:19:24;9.20;;;6.00;;
22965;SDS011;11649;48.090;9.754;2023-01-19T14:22:02;10.63;;;6.30;;
22965;SDS011;11649;48.090;9.754;2023-01-19T14:24:30;11.05;;;7.43;;
22965;SDS011;11649;48.090;9.754;2023-01-19T14:27:15;9.98;;;6.50;;
22965;SDS011;11649;48.090;9.754;2023-01-19T14:29:47;12.10;;;6.82;;
22965;SDS011;11649;48.090;9.754;2023-01-19T14:32:19;11.63;;;6.50;;
22965;SDS011;11649;48.090;9.754;2023-01-19T14:37:31;11.48;;;6.63;;
22965;SDS011;11649;48.090;9.754;2023-01-19T14:40:12;11.80;;;7.20;;
22965;SDS011;11649;48.090;9.754;2023-01-19T14:42:52;8.68;;;6.28;;
22965;SDS011;11649;48.090;9.754;2023-01-19T14:45:28;10.68;;;5.97;;
22965;SDS011;11649;48.090;9.754;2023-01-19T14:48:03;9.68;;;6.25;;
22965;SDS011;11649;48.090;9.754;2023-01-19T14:51:01;9.02;;;6.75;;
22965;SDS011;11649;48.090;9.754;2023-01-19T14:53:34;9.48;;;6.35;;
22965;SDS011;11649;48.090;9.754;2023-01-19T14:56:03;5.18;;;4.00;;
22965;SDS011;11649;48.090;9.754;2023-01-19T14:58:32;12.15;;;6.60;;
22965;SDS011;11649;48.090;9.754;2023-01-19T15:00:59;12.63;;;6.85;;
22965;SDS011;11649;48.090;9.754;2023-01-19T15:03:27;10.80;;;6.43;;
22965;SDS011;11649;48.090;9.754;2023-01-19T15:06:11;10.48;;;7.28;;
22965;SDS011;11649;48.090;9.754;2023-01-19T15:08:40;13.10;;;7.93;;
22965;SDS011;11649;48.090;9.754;2023-01-19T15:11:09;11.98;;;7.15;;
22965;SDS011;11649;48.090;9.754;2023-01-19T15:13:43;11.60;;;7.93;;
22965;SDS011;11649;48.090;9.754;2023-01-19T15:16:10;13.05;;;7.68;;
22965;SDS011;11649;48.090;9.754;2023-01-19T15:18:37;9.35;;;6.70;;
22965;SDS011;11649;48.090;9.754;2023-01-19T15:21:04;9.40;;;6.45;;
22965;SDS011;11649;48.090;9.754;2023-01-19T15:23:31;10.95;;;7.05;;
22965;SDS011;11649;48.090;9.754;2023-01-19T15:25:58;10.35;;;7.10;;
22965;SDS011;11649;48.090;9.754;2023-01-19T15:28:27;9.35;;;6.40;;
22965;SDS011;11649;48.090;9.754;2023-01-19T15:30:54;10.23;;;6.70;;
22965;SDS011;11649;48.090;9.754;2023-01-19T15:33:24;10.50;;;6.57;;
22965;SDS011;11649;48.090;9.754;2023-01-19T15:35:52;10.25;;;6.50;;
22965;SDS011;11649;48.090;9.754;2023-01-19T15:38:19;10.77;;;6.47;;
22965;SDS011;11649;48.090;9.754;2023-01-19T15:40:46;11.50;;;6.93;;
22965;SDS011;11649;48.090;9.754;2023-01-19T15:43:16;9.95;;;6.57;;
22965;SDS011;11649;48.090;9.754;2023-01-19T15:45:50;11.13;;;6.85;;
22965;SDS011;11649;48.090;9.754;2023-01-19T15:48:22;8.25;;;5.88;;
22965;SDS011;11649;48.090;9.754;2023-01-19T15:50:48;11.50;;;6.78;;
22965;SDS011;11649;48.090;9.754;2023-01-19T15:53:17;14.77;;;9.52;;
22965;SDS011;11649;48.090;9.754;2023-01-19T15:55:48;9.95;;;6.68;;
22965;SDS011;11649;48.090;9.754;2023-01-19T15:58:20;15.52;;;8.43;;
22965;SDS011;11649;48.090;9.754;2023-01-19T16:00:52;14.68;;;9.02;;
22965;SDS011;11649;48.090;9.754;2023-01-19T16:03:21;11.63;;;6.32;;